createdAt,value
2023-02-27T00:02:26.152Z,4.30
2023-02-27T00:04:54.422Z,3.83
2023-02-27T00:07:25.818Z,4.05
2023-02-27T00:09:53.142Z,3.70
2023-02-27T00:12:20.577Z,3.90
2023-02-27T00:14:47.937Z,3.95
2023-02-27T00:17:16.594Z,3.53
2023-02-27T00:19:43.928Z,3.47
2023-02-27T00:22:11.241Z,3.80
2023-02-27T00:24:38.571Z,3.90
2023-02-27T00:27:05.902Z,3.45
2023-02-27T00:29:33.194Z,4.10
2023-02-27T00:32:00.594Z,4.43
2023-02-27T00:34:29.425Z,3.67
2023-02-27T00:36:56.719Z,3.65
2023-02-27T00:39:24.017Z,3.80
2023-02-27T00:41:51.355Z,4.18
2023-02-27T00:44:18.661Z,4.68
2023-02-27T00:46:46.049Z,5.97
2023-02-27T00:49:13.411Z,4.10
2023-02-27T00:51:42.063Z,4.45
2023-02-27T00:54:09.502Z,4.10
2023-02-27T00:56:37.153Z,4.45
2023-02-27T00:59:04.532Z,4.68
2023-02-27T01:01:32.016Z,5.22
2023-02-27T01:03:59.330Z,4.70
2023-02-27T01:06:26.689Z,5.10
2023-02-27T01:08:55.778Z,4.82
2023-02-27T01:11:23.148Z,3.58
2023-02-27T01:13:50.487Z,4.40
2023-02-27T01:16:17.889Z,4.15
2023-02-27T01:18:45.183Z,4.93
2023-02-27T01:21:12.463Z,4.30
2023-02-27T01:23:39.791Z,4.47
2023-02-27T01:26:08.494Z,5.10
2023-02-27T01:28:35.774Z,4.00
2023-02-27T01:31:03.127Z,4.40
2023-02-27T01:33:30.508Z,4.32
2023-02-27T01:35:57.791Z,4.07
2023-02-27T01:38:25.132Z,3.88
2023-02-27T01:40:52.500Z,4.22
2023-02-27T01:43:22.092Z,3.72
2023-02-27T01:45:49.517Z,4.18
2023-02-27T01:48:18.952Z,3.95
2023-02-27T01:50:51.363Z,4.20
2023-02-27T01:53:19.396Z,3.92
2023-02-27T01:55:46.856Z,4.10
2023-02-27T01:58:15.252Z,4.35
2023-02-27T02:00:43.948Z,3.63
2023-02-27T02:03:18.002Z,4.03
2023-02-27T02:05:46.767Z,4.07
2023-02-27T02:08:15.846Z,4.55
2023-02-27T02:10:43.858Z,4.07
2023-02-27T02:13:11.165Z,4.55
2023-02-27T02:15:40.269Z,3.70
2023-02-27T02:18:14.944Z,4.80
2023-02-27T02:20:55.660Z,4.40
2023-02-27T02:23:34.595Z,4.40
2023-02-27T02:26:19.823Z,5.25
2023-02-27T02:28:58.471Z,4.88
2023-02-27T02:31:37.117Z,5.03
2023-02-27T02:34:23.330Z,4.63
2023-02-27T02:37:05.419Z,4.72
2023-02-27T02:39:53.414Z,4.53
2023-02-27T02:42:25.278Z,4.60
2023-02-27T02:44:58.982Z,4.72
2023-02-27T02:47:31.687Z,5.25
2023-02-27T02:50:03.735Z,4.45
2023-02-27T02:52:36.470Z,4.60
2023-02-27T02:55:07.475Z,5.13
2023-02-27T02:57:39.358Z,4.85
2023-02-27T03:00:11.775Z,5.18
2023-02-27T03:02:40.824Z,4.80
2023-02-27T03:05:09.722Z,4.60
2023-02-27T03:07:39.608Z,4.93
2023-02-27T03:10:10.506Z,4.88
2023-02-27T03:12:42.157Z,5.45
2023-02-27T03:15:12.215Z,4.70
2023-02-27T03:17:43.864Z,5.40
2023-02-27T03:20:13.522Z,5.00
2023-02-27T03:22:42.363Z,4.82
2023-02-27T03:25:10.977Z,4.82
2023-02-27T03:27:41.577Z,4.35
2023-02-27T03:30:10.557Z,4.80
2023-02-27T03:32:42.407Z,5.13
2023-02-27T03:35:10.291Z,4.68
2023-02-27T03:37:40.659Z,4.50
2023-02-27T03:40:14.223Z,4.68
2023-02-27T03:42:46.408Z,5.72
2023-02-27T03:45:17.282Z,4.68
2023-02-27T03:47:44.955Z,5.28
2023-02-27T03:50:12.579Z,5.15
2023-02-27T03:52:40.136Z,4.90
2023-02-27T03:55:11.378Z,5.03
2023-02-27T03:57:38.970Z,4.72
2023-02-27T04:00:09.134Z,4.78
2023-02-27T04:02:38.028Z,5.20
2023-02-27T04:05:05.611Z,5.63
2023-02-27T04:07:38.843Z,4.97
2023-02-27T04:10:11.174Z,5.13
2023-02-27T04:12:49.171Z,4.65
2023-02-27T04:15:22.004Z,5.05
2023-02-27T04:17:55.481Z,5.07
2023-02-27T04:20:37.379Z,5.23
2023-02-27T04:23:06.272Z,4.47
2023-02-27T04:25:40.850Z,4.70
2023-02-27T04:28:12.580Z,4.85
2023-02-27T04:30:44.609Z,4.32
2023-02-27T04:33:14.446Z,4.63
2023-02-27T04:35:44.591Z,4.15
2023-02-27T04:38:17.312Z,4.47
2023-02-27T04:40:46.056Z,4.60
2023-02-27T04:43:17.151Z,5.53
2023-02-27T04:45:47.360Z,4.50
2023-02-27T04:48:16.738Z,4.85
2023-02-27T04:50:46.118Z,4.75
2023-02-27T04:53:16.711Z,5.20
2023-02-27T04:55:46.029Z,4.90
2023-02-27T04:58:14.876Z,5.00
2023-02-27T05:00:45.205Z,5.13
2023-02-27T05:03:15.991Z,4.82
2023-02-27T05:05:44.736Z,4.97
2023-02-27T05:08:17.048Z,5.65
2023-02-27T05:10:46.941Z,5.38
2023-02-27T05:13:15.884Z,4.50
2023-02-27T05:15:45.031Z,4.68
2023-02-27T05:18:15.763Z,5.20
2023-02-27T05:20:49.217Z,4.53
2023-02-27T05:23:21.868Z,5.43
2023-02-27T05:25:50.824Z,4.95
2023-02-27T05:28:21.111Z,5.60
2023-02-27T05:30:51.680Z,5.03
2023-02-27T05:33:23.244Z,5.45
2023-02-27T05:35:53.185Z,6.80
2023-02-27T05:38:22.787Z,5.35
2023-02-27T05:40:52.974Z,5.68
2023-02-27T05:43:22.285Z,5.05
2023-02-27T05:45:51.700Z,5.93
2023-02-27T05:48:23.058Z,6.47
2023-02-27T05:50:50.978Z,5.93
2023-02-27T05:53:19.880Z,5.60
2023-02-27T05:55:48.131Z,6.05
2023-02-27T05:58:18.291Z,6.07
2023-02-27T06:00:47.662Z,5.57
2023-02-27T06:03:15.352Z,5.60
2023-02-27T06:05:44.646Z,6.30
2023-02-27T06:08:12.211Z,5.93
2023-02-27T06:10:39.568Z,5.88
2023-02-27T06:13:06.851Z,6.70
2023-02-27T06:15:34.146Z,6.43
2023-02-27T06:18:01.434Z,5.70
2023-02-27T06:20:28.703Z,6.68
2023-02-27T06:22:57.462Z,6.30
2023-02-27T06:25:24.777Z,6.32
2023-02-27T06:27:52.122Z,6.95
2023-02-27T06:30:19.589Z,6.28
2023-02-27T06:32:46.911Z,7.43
2023-02-27T06:35:14.220Z,6.22
2023-02-27T06:37:42.128Z,7.93
2023-02-27T06:40:12.371Z,6.45
2023-02-27T06:42:39.758Z,6.35
2023-02-27T06:45:07.727Z,6.75
2023-02-27T06:47:35.072Z,7.10
2023-02-27T06:50:02.452Z,6.53
2023-02-27T06:52:29.813Z,7.10
2023-02-27T06:54:57.287Z,7.50
2023-02-27T06:57:26.018Z,6.47
2023-02-27T06:59:53.356Z,6.75
2023-02-27T07:02:20.646Z,8.10
2023-02-27T07:04:48.003Z,6.57
2023-02-27T07:07:33.841Z,7.60
2023-02-27T07:10:02.982Z,7.68
2023-02-27T07:12:31.672Z,7.15
2023-02-27T07:15:01.315Z,6.68
2023-02-27T07:17:28.632Z,6.50
2023-02-27T07:19:55.911Z,6.88
2023-02-27T07:22:23.266Z,6.70
2023-02-27T07:24:50.654Z,6.78
2023-02-27T07:27:18.018Z,5.85
2023-02-27T07:29:46.677Z,5.30
2023-02-27T07:32:14.067Z,6.07
2023-02-27T07:34:41.416Z,5.20
2023-02-27T07:37:09.017Z,5.55
2023-02-27T07:39:36.543Z,5.55
2023-02-27T07:42:03.905Z,5.40
2023-02-27T07:44:31.165Z,6.10
2023-02-27T07:46:59.812Z,5.60
2023-02-27T07:49:27.214Z,6.18
2023-02-27T07:51:54.550Z,5.60
2023-02-27T07:54:21.857Z,5.07
2023-02-27T07:56:49.128Z,6.40
2023-02-27T07:59:16.462Z,5.57
2023-02-27T08:01:43.787Z,5.95
2023-02-27T08:04:12.434Z,5.25
2023-02-27T08:06:39.827Z,5.45
2023-02-27T08:09:07.332Z,5.30
2023-02-27T08:11:34.676Z,5.50
2023-02-27T08:14:02.744Z,5.15
2023-02-27T08:16:32.100Z,4.50
2023-02-27T08:19:00.089Z,4.32
2023-02-27T08:21:29.441Z,4.32
2023-02-27T08:23:57.138Z,3.38
2023-02-27T08:26:24.446Z,4.10
2023-02-27T08:28:51.762Z,3.88
2023-02-27T08:31:19.164Z,3.88
2023-02-27T08:33:46.531Z,3.60
2023-02-27T08:36:14.167Z,4.20
2023-02-27T08:38:43.193Z,4.35
2023-02-27T08:41:10.485Z,4.53
2023-02-27T08:43:37.801Z,3.55
2023-02-27T08:46:05.372Z,3.30
2023-02-27T08:48:32.731Z,3.58
2023-02-27T08:51:00.037Z,4.00
2023-02-27T08:53:28.104Z,3.45
2023-02-27T08:55:56.846Z,4.38
2023-02-27T08:58:24.223Z,3.67
2023-02-27T09:00:51.714Z,3.17
2023-02-27T09:03:19.100Z,2.92
2023-02-27T09:05:46.502Z,3.28
2023-02-27T09:08:13.801Z,3.47
2023-02-27T09:10:41.138Z,3.33
2023-02-27T09:13:10.039Z,2.88
2023-02-27T09:15:37.792Z,2.80
2023-02-27T09:18:06.794Z,3.45
2023-02-27T09:20:35.653Z,3.13
2023-02-27T09:23:03.372Z,3.30
2023-02-27T09:25:30.840Z,3.38
2023-02-27T09:27:58.850Z,3.38
2023-02-27T09:30:27.519Z,3.15
2023-02-27T09:32:54.846Z,3.33
2023-02-27T09:35:22.182Z,3.45
2023-02-27T09:37:50.128Z,3.05
2023-02-27T09:40:21.915Z,3.53
2023-02-27T09:42:49.337Z,3.75
2023-02-27T09:45:22.030Z,3.53
2023-02-27T09:47:52.119Z,3.17
2023-02-27T09:50:25.795Z,3.65
2023-02-27T09:52:53.156Z,3.55
2023-02-27T09:55:21.348Z,3.38
2023-02-27T09:57:50.705Z,3.30
2023-02-27T10:00:30.373Z,3.00
2023-02-27T10:03:07.353Z,3.08
2023-02-27T10:05:36.885Z,3.15
2023-02-27T10:08:09.533Z,2.72
2023-02-27T10:10:39.384Z,3.15
2023-02-27T10:13:26.366Z,3.08
2023-02-27T10:15:55.128Z,3.03
2023-02-27T10:18:28.950Z,2.95
2023-02-27T10:20:59.175Z,2.92
2023-02-27T10:23:31.766Z,2.38
2023-02-27T10:25:59.427Z,2.60
2023-02-27T10:28:26.889Z,2.67
2023-02-27T10:30:55.863Z,3.00
2023-02-27T10:33:28.128Z,2.72
2023-02-27T10:35:55.798Z,2.65
2023-02-27T10:38:27.718Z,2.67
2023-02-27T10:40:55.358Z,2.95
2023-02-27T10:43:22.767Z,2.20
2023-02-27T10:45:50.147Z,2.58
2023-02-27T10:48:17.834Z,2.85
2023-02-27T10:50:47.223Z,2.90
2023-02-27T10:53:19.373Z,2.47
2023-02-27T10:55:49.241Z,1.73
2023-02-27T10:58:19.882Z,1.90
2023-02-27T11:00:54.114Z,1.80
2023-02-27T11:03:22.770Z,1.90
2023-02-27T11:05:55.663Z,1.90
2023-02-27T11:08:24.629Z,1.90
2023-02-27T11:10:56.678Z,1.75
2023-02-27T11:13:25.795Z,2.35
2023-02-27T11:16:03.922Z,2.13
2023-02-27T11:18:31.630Z,2.17
2023-02-27T11:21:12.602Z,2.42
2023-02-27T11:23:49.806Z,1.80
2023-02-27T11:26:19.869Z,1.77
2023-02-27T11:28:47.207Z,2.20
2023-02-27T11:31:17.381Z,1.95
2023-02-27T11:33:49.897Z,1.73
2023-02-27T11:36:18.604Z,1.50
2023-02-27T11:38:52.713Z,1.20
2023-02-27T11:41:20.229Z,1.83
2023-02-27T11:43:49.357Z,1.35
2023-02-27T11:46:46.634Z,1.90
2023-02-27T11:49:19.261Z,1.90
2023-02-27T11:51:54.208Z,2.10
2023-02-27T11:54:26.954Z,1.80
2023-02-27T11:57:02.546Z,1.75
2023-02-27T11:59:33.228Z,1.75
2023-02-27T12:02:03.633Z,1.83
2023-02-27T12:04:35.310Z,1.55
2023-02-27T12:07:06.526Z,1.60
2023-02-27T12:09:36.559Z,1.95
2023-02-27T12:12:06.324Z,1.80
2023-02-27T12:14:39.214Z,1.67
2023-02-27T12:17:10.831Z,1.83
2023-02-27T12:19:41.348Z,1.52
2023-02-27T12:22:16.357Z,1.52
2023-02-27T12:24:48.474Z,1.92
2023-02-27T12:27:20.813Z,2.20
2023-02-27T12:29:50.293Z,1.88
2023-02-27T12:32:19.554Z,1.75
2023-02-27T12:34:49.311Z,1.98
2023-02-27T12:37:24.816Z,1.80
2023-02-27T12:39:53.610Z,1.67
2023-02-27T12:42:37.804Z,1.70
2023-02-27T12:45:27.097Z,1.88
2023-02-27T12:47:59.486Z,1.38
2023-02-27T12:50:30.496Z,1.73
2023-02-27T12:53:03.321Z,1.70
2023-02-27T12:55:32.361Z,1.77
2023-02-27T12:58:20.538Z,1.50
2023-02-27T13:00:49.908Z,1.40
2023-02-27T13:03:21.249Z,1.90
2023-02-27T13:05:52.521Z,1.73
2023-02-27T13:08:40.919Z,1.70
2023-02-27T13:11:17.256Z,1.60
2023-02-27T13:13:47.644Z,1.33
2023-02-27T13:16:18.074Z,1.42
2023-02-27T13:18:48.972Z,1.48
2023-02-27T13:21:19.687Z,1.70
2023-02-27T13:24:10.715Z,1.30
2023-02-27T13:26:40.667Z,1.83
2023-02-27T13:29:08.454Z,1.58
2023-02-27T13:31:39.273Z,1.50
2023-02-27T13:34:10.292Z,1.70
2023-02-27T13:36:40.048Z,1.30
2023-02-27T13:39:28.096Z,1.40
2023-02-27T13:41:56.786Z,1.65
2023-02-27T13:44:47.843Z,1.50
2023-02-27T13:47:33.612Z,1.60
2023-02-27T13:50:02.379Z,1.70
2023-02-27T13:52:30.409Z,1.20
2023-02-27T13:55:06.243Z,1.52
2023-02-27T13:57:40.296Z,1.73
2023-02-27T14:00:09.763Z,1.58
2023-02-27T14:02:56.489Z,1.60
2023-02-27T14:05:28.727Z,1.38
2023-02-27T14:08:01.379Z,1.55
2023-02-27T14:10:29.677Z,1.60
2023-02-27T14:12:58.851Z,1.65
2023-02-27T14:15:44.808Z,1.38
2023-02-27T14:18:33.930Z,1.23
2023-02-27T14:21:01.710Z,1.90
2023-02-27T14:23:29.291Z,1.50
2023-02-27T14:25:57.502Z,1.30
2023-02-27T14:28:30.729Z,1.52
2023-02-27T14:30:59.448Z,1.27
2023-02-27T14:33:39.702Z,1.35
2023-02-27T14:36:10.104Z,1.40
2023-02-27T14:38:38.445Z,1.10
2023-02-27T14:41:10.719Z,1.52
2023-02-27T14:43:41.077Z,1.00
2023-02-27T14:46:13.709Z,1.08
2023-02-27T14:48:41.098Z,1.20
2023-02-27T14:51:10.084Z,1.52
2023-02-27T14:53:37.418Z,1.70
2023-02-27T14:56:05.082Z,1.38
2023-02-27T14:58:32.763Z,2.00
2023-02-27T15:01:10.679Z,1.38
2023-02-27T15:03:39.853Z,1.75
2023-02-27T15:06:14.186Z,1.70
2023-02-27T15:08:42.826Z,1.60
2023-02-27T15:11:14.870Z,1.85
2023-02-27T15:13:43.350Z,1.60
2023-02-27T15:16:22.358Z,1.40
2023-02-27T15:18:50.882Z,1.30
2023-02-27T15:21:19.319Z,1.45
2023-02-27T15:23:54.688Z,1.30
2023-02-27T15:26:22.112Z,1.63
2023-02-27T15:28:49.753Z,1.80
2023-02-27T15:31:20.193Z,1.38
2023-02-27T15:33:49.278Z,1.48
2023-02-27T15:36:19.864Z,1.60
2023-02-27T15:38:47.188Z,2.20
2023-02-27T15:41:16.343Z,1.50
2023-02-27T15:43:43.838Z,1.23
2023-02-27T15:46:11.167Z,1.35
2023-02-27T15:48:38.539Z,2.00
2023-02-27T15:51:09.988Z,1.70
2023-02-27T15:53:37.285Z,1.70
2023-02-27T15:56:08.579Z,1.67
2023-02-27T15:58:37.208Z,1.60
2023-02-27T16:01:06.296Z,1.70
2023-02-27T16:03:36.594Z,1.80
2023-02-27T16:06:09.240Z,1.85
2023-02-27T16:08:43.013Z,1.52
2023-02-27T16:11:18.361Z,1.58
2023-02-27T16:13:45.700Z,3.45
2023-02-27T16:16:23.677Z,1.85
2023-02-27T16:18:52.381Z,1.52
2023-02-27T16:21:20.831Z,1.92
2023-02-27T16:23:49.815Z,1.40
2023-02-27T16:26:28.944Z,1.75
2023-02-27T16:28:57.892Z,1.67
2023-02-27T16:31:27.808Z,1.80
2023-02-27T16:33:56.480Z,1.35
2023-02-27T16:36:24.593Z,1.67
2023-02-27T16:38:53.349Z,1.90
2023-02-27T16:41:21.980Z,1.50
2023-02-27T16:43:49.736Z,1.80
2023-02-27T16:46:20.130Z,1.73
2023-02-27T16:48:49.476Z,1.60
2023-02-27T16:51:18.132Z,1.75
2023-02-27T16:53:47.228Z,1.60
2023-02-27T16:56:17.075Z,1.58
2023-02-27T16:58:45.972Z,1.38
2023-02-27T17:01:14.511Z,1.60
2023-02-27T17:03:42.026Z,1.67
2023-02-27T17:06:11.670Z,1.90
2023-02-27T17:08:39.204Z,1.95
2023-02-27T17:11:06.859Z,1.90
2023-02-27T17:13:36.307Z,2.13
2023-02-27T17:16:03.636Z,8.02
2023-02-27T17:18:31.063Z,9.93
2023-02-27T17:21:00.534Z,2.85
2023-02-27T17:23:28.001Z,2.45
2023-02-27T17:25:55.730Z,2.67
2023-02-27T17:28:23.513Z,2.30
2023-02-27T17:30:52.219Z,2.00
2023-02-27T17:33:20.325Z,2.20
2023-02-27T17:35:47.630Z,2.42
2023-02-27T17:38:14.955Z,2.17
2023-02-27T17:40:42.245Z,2.50
2023-02-27T17:43:09.581Z,2.42
2023-02-27T17:45:36.942Z,2.50
2023-02-27T17:48:05.990Z,2.28
2023-02-27T17:50:34.364Z,2.55
2023-02-27T17:53:01.710Z,2.55
2023-02-27T17:55:29.118Z,2.25
2023-02-27T17:57:56.505Z,2.13
2023-02-27T18:00:24.765Z,2.38
2023-02-27T18:02:52.184Z,2.35
2023-02-27T18:05:20.884Z,2.70
2023-02-27T18:07:48.492Z,2.10
2023-02-27T18:10:15.880Z,2.55
2023-02-27T18:12:43.604Z,2.55
2023-02-27T18:15:11.315Z,2.67
2023-02-27T18:17:38.640Z,3.70
2023-02-27T18:20:06.463Z,3.08
2023-02-27T18:22:35.107Z,2.83
2023-02-27T18:25:02.441Z,2.25
2023-02-27T18:27:29.774Z,2.70
2023-02-27T18:29:57.826Z,2.42
2023-02-27T18:32:25.223Z,2.45
2023-02-27T18:34:53.398Z,2.42
2023-02-27T18:37:20.725Z,2.85
2023-02-27T18:39:49.412Z,3.00
2023-02-27T18:42:16.723Z,2.92
2023-02-27T18:44:44.188Z,3.47
2023-02-27T18:47:11.959Z,3.92
2023-02-27T18:49:39.303Z,3.67
2023-02-27T18:52:06.739Z,4.30
2023-02-27T18:54:34.203Z,4.43
2023-02-27T18:57:02.922Z,5.25
2023-02-27T18:59:30.309Z,6.78
2023-02-27T19:01:57.945Z,6.95
2023-02-27T19:04:26.037Z,6.07
2023-02-27T19:06:53.506Z,6.10
2023-02-27T19:09:22.279Z,5.25
2023-02-27T19:11:49.703Z,5.00
2023-02-27T19:14:18.347Z,3.95
2023-02-27T19:16:46.429Z,4.05
2023-02-27T19:19:14.948Z,4.25
2023-02-27T19:21:42.345Z,4.45
2023-02-27T19:24:10.001Z,4.78
2023-02-27T19:26:37.424Z,4.90
2023-02-27T19:29:04.891Z,4.30
2023-02-27T19:31:33.840Z,3.92
2023-02-27T19:34:01.809Z,3.72
2023-02-27T19:36:30.426Z,3.65
2023-02-27T19:38:58.207Z,4.50
2023-02-27T19:41:25.911Z,3.50
2023-02-27T19:43:53.666Z,4.80
2023-02-27T19:46:21.810Z,4.68
2023-02-27T19:48:50.829Z,4.38
2023-02-27T19:51:18.216Z,8.98
2023-02-27T19:53:48.315Z,7.93
2023-02-27T19:56:17.402Z,5.50
2023-02-27T19:58:44.746Z,7.65
2023-02-27T20:01:12.578Z,6.47
2023-02-27T20:03:43.748Z,6.07
2023-02-27T20:06:17.408Z,6.47
2023-02-27T20:08:44.751Z,8.45
2023-02-27T20:11:13.393Z,6.13
2023-02-27T20:13:41.017Z,5.28
2023-02-27T20:16:09.460Z,9.18
2023-02-27T20:18:37.391Z,5.25
2023-02-27T20:21:05.733Z,5.25
2023-02-27T20:23:35.226Z,5.68
2023-02-27T20:26:02.819Z,6.85
2023-02-27T20:28:30.202Z,5.78
2023-02-27T20:30:57.530Z,5.18
2023-02-27T20:33:24.816Z,4.70
2023-02-27T20:35:52.184Z,4.78
2023-02-27T20:38:21.310Z,4.95
2023-02-27T20:40:50.851Z,5.47
2023-02-27T20:43:18.172Z,5.70
2023-02-27T20:45:45.561Z,6.38
2023-02-27T20:48:12.897Z,6.20
2023-02-27T20:50:40.247Z,5.97
2023-02-27T20:53:07.655Z,5.72
2023-02-27T20:55:35.016Z,6.07
2023-02-27T20:58:03.658Z,6.35
2023-02-27T21:00:30.963Z,7.03
2023-02-27T21:03:00.798Z,6.60
2023-02-27T21:05:28.173Z,5.93
2023-02-27T21:07:55.498Z,6.50
2023-02-27T21:10:22.880Z,6.20
2023-02-27T21:12:50.260Z,6.28
2023-02-27T21:15:19.030Z,6.25
2023-02-27T21:17:46.343Z,5.13
2023-02-27T21:20:14.424Z,5.63
2023-02-27T21:22:41.709Z,5.03
2023-02-27T21:25:09.435Z,5.60
2023-02-27T21:27:36.791Z,5.22
2023-02-27T21:30:05.419Z,4.70
2023-02-27T21:32:34.060Z,5.35
2023-02-27T21:35:01.336Z,5.68
2023-02-27T21:37:28.661Z,5.47
2023-02-27T21:39:57.116Z,4.30
2023-02-27T21:42:24.711Z,5.13
2023-02-27T21:44:52.131Z,4.97
2023-02-27T21:47:20.637Z,5.15
2023-02-27T21:49:49.308Z,4.63
2023-02-27T21:52:16.743Z,4.35
2023-02-27T21:54:44.048Z,4.47
2023-02-27T21:57:11.376Z,4.28
2023-02-27T21:59:38.806Z,4.50
2023-02-27T22:02:06.076Z,4.30
2023-02-27T22:04:33.399Z,4.13
2023-02-27T22:07:02.127Z,4.50
2023-02-27T22:09:29.435Z,4.13
2023-02-27T22:11:56.811Z,4.90
2023-02-27T22:14:28.147Z,4.45
2023-02-27T22:16:55.640Z,4.13
2023-02-27T22:19:23.308Z,4.20
2023-02-27T22:21:50.682Z,3.50
2023-02-27T22:24:20.299Z,3.40
2023-02-27T22:26:47.684Z,3.45
2023-02-27T22:29:15.019Z,3.72
2023-02-27T22:31:42.500Z,3.15
2023-02-27T22:34:11.891Z,3.58
2023-02-27T22:36:41.091Z,3.88
2023-02-27T22:39:08.529Z,3.85
2023-02-27T22:41:38.011Z,3.72
2023-02-27T22:44:05.659Z,3.55
2023-02-27T22:46:33.933Z,3.80
2023-02-27T22:49:02.426Z,4.63
2023-02-27T22:51:30.169Z,4.00
2023-02-27T22:53:59.786Z,4.35
2023-02-27T22:56:27.221Z,3.80
2023-02-27T22:58:55.955Z,4.15
2023-02-27T23:01:24.198Z,4.18
2023-02-27T23:03:53.016Z,4.15
2023-02-27T23:06:21.692Z,4.18
2023-02-27T23:08:49.285Z,4.30
2023-02-27T23:11:17.078Z,4.47
2023-02-27T23:13:44.448Z,3.67
2023-02-27T23:16:13.604Z,3.47
2023-02-27T23:18:41.613Z,3.88
2023-02-27T23:21:09.518Z,3.90
2023-02-27T23:23:37.242Z,3.85
2023-02-27T23:26:05.655Z,3.67
2023-02-27T23:28:33.960Z,3.75
2023-02-27T23:31:01.713Z,3.45
2023-02-27T23:33:31.092Z,4.15
2023-02-27T23:35:58.675Z,3.65
2023-02-27T23:38:26.125Z,3.70
2023-02-27T23:40:54.004Z,3.75
2023-02-27T23:43:21.706Z,3.90
2023-02-27T23:45:49.056Z,3.63
2023-02-27T23:48:16.481Z,4.07
2023-02-27T23:50:45.539Z,3.78
2023-02-27T23:53:14.150Z,3.78
2023-02-27T23:55:41.851Z,3.88
2023-02-27T23:58:09.982Z,4.22
